sensor_id;sensor_type;location;lat;lon;timestamp;pressure;altitude;pressure_sealevel;temperature
24201;BMP280;2801;50.972;7.856;2023-11-18T00:00:09;98390.78;;;1.52
24201;BMP280;2801;50.972;7.856;2023-11-18T00:02:39;98393.44;;;1.52
24201;BMP280;2801;50.972;7.856;2023-11-18T00:05:07;98376.53;;;1.53
24201;BMP280;2801;50.972;7.856;2023-11-18T00:07:34;98382.75;;;1.64
24201;BMP280;2801;50.972;7.856;2023-11-18T00:10:02;98383.31;;;1.66
24201;BMP280;2801;50.972;7.856;2023-11-18T00:12:29;98369.63;;;1.69
24201;BMP280;2801;50.972;7.856;2023-11-18T00:14:56;98380.75;;;1.71
24201;BMP280;2801;50.972;7.856;2023-11-18T00:17:23;98378.56;;;1.68
24201;BMP280;2801;50.972;7.856;2023-11-18T00:19:50;98382.50;;;1.65
24201;BMP280;2801;50.972;7.856;2023-11-18T00:22:17;98391.31;;;1.71
24201;BMP280;2801;50.972;7.856;2023-11-18T00:24:44;98384.19;;;1.71
24201;BMP280;2801;50.972;7.856;2023-11-18T00:27:12;98389.25;;;1.73
24201;BMP280;2801;50.972;7.856;2023-11-18T00:29:42;98395.81;;;1.70
24201;BMP280;2801;50.972;7.856;2023-11-18T00:32:10;98397.41;;;1.71
24201;BMP280;2801;50.972;7.856;2023-11-18T00:34:38;98401.09;;;1.70
24201;BMP280;2801;50.972;7.856;2023-11-18T00:37:05;98399.00;;;1.72
24201;BMP280;2801;50.972;7.856;2023-11-18T00:39:32;98398.53;;;1.75
24201;BMP280;2801;50.972;7.856;2023-11-18T00:41:59;98401.41;;;1.74
24201;BMP280;2801;50.972;7.856;2023-11-18T00:44:27;98404.88;;;1.74
24201;BMP280;2801;50.972;7.856;2023-11-18T00:46:54;98396.38;;;1.72
24201;BMP280;2801;50.972;7.856;2023-11-18T00:49:21;98410.28;;;1.68
24201;BMP280;2801;50.972;7.856;2023-11-18T00:51:48;98407.75;;;1.73
24201;BMP280;2801;50.972;7.856;2023-11-18T00:54:15;98406.47;;;1.75
24201;BMP280;2801;50.972;7.856;2023-11-18T00:56:42;98397.22;;;1.78
24201;BMP280;2801;50.972;7.856;2023-11-18T00:59:09;98399.63;;;1.79
24201;BMP280;2801;50.972;7.856;2023-11-18T01:01:36;98397.00;;;1.79
24201;BMP280;2801;50.972;7.856;2023-11-18T01:04:04;98395.56;;;1.72
24201;BMP280;2801;50.972;7.856;2023-11-18T01:06:32;98396.94;;;1.74
24201;BMP280;2801;50.972;7.856;2023-11-18T01:09:00;98387.31;;;1.68
24201;BMP280;2801;50.972;7.856;2023-11-18T01:11:27;98394.19;;;1.69
24201;BMP280;2801;50.972;7.856;2023-11-18T01:13:54;98392.59;;;1.68
24201;BMP280;2801;50.972;7.856;2023-11-18T01:16:22;98392.84;;;1.67
24201;BMP280;2801;50.972;7.856;2023-11-18T01:18:51;98384.84;;;1.62
24201;BMP280;2801;50.972;7.856;2023-11-18T01:21:18;98375.81;;;1.58
24201;BMP280;2801;50.972;7.856;2023-11-18T01:23:45;98383.50;;;1.59
24201;BMP280;2801;50.972;7.856;2023-11-18T01:26:12;98390.09;;;1.57
24201;BMP280;2801;50.972;7.856;2023-11-18T01:28:39;98390.56;;;1.54
24201;BMP280;2801;50.972;7.856;2023-11-18T01:31:11;98391.84;;;1.51
24201;BMP280;2801;50.972;7.856;2023-11-18T01:33:41;98380.94;;;1.48
24201;BMP280;2801;50.972;7.856;2023-11-18T01:36:09;98384.63;;;1.47
24201;BMP280;2801;50.972;7.856;2023-11-18T01:38:37;98380.47;;;1.51
24201;BMP280;2801;50.972;7.856;2023-11-18T01:41:06;98382.81;;;1.47
24201;BMP280;2801;50.972;7.856;2023-11-18T01:43:34;98391.22;;;1.44
24201;BMP280;2801;50.972;7.856;2023-11-18T01:46:09;98386.09;;;1.38
24201;BMP280;2801;50.972;7.856;2023-11-18T01:48:38;98387.22;;;1.42
24201;BMP280;2801;50.972;7.856;2023-11-18T01:51:08;98388.09;;;1.47
24201;BMP280;2801;50.972;7.856;2023-11-18T01:53:38;98391.75;;;1.46
24201;BMP280;2801;50.972;7.856;2023-11-18T01:56:07;98389.44;;;1.50
24201;BMP280;2801;50.972;7.856;2023-11-18T01:58:36;98400.31;;;1.53
24201;BMP280;2801;50.972;7.856;2023-11-18T02:01:04;98409.84;;;1.54
24201;BMP280;2801;50.972;7.856;2023-11-18T02:03:35;98400.38;;;1.58
24201;BMP280;2801;50.972;7.856;2023-11-18T02:06:05;98399.59;;;1.58
24201;BMP280;2801;50.972;7.856;2023-11-18T02:08:36;98400.31;;;1.53
24201;BMP280;2801;50.972;7.856;2023-11-18T02:11:15;98400.66;;;1.57
24201;BMP280;2801;50.972;7.856;2023-11-18T02:13:48;98406.25;;;1.60
24201;BMP280;2801;50.972;7.856;2023-11-18T02:16:17;98389.34;;;1.61
24201;BMP280;2801;50.972;7.856;2023-11-18T02:18:48;98389.56;;;1.60
24201;BMP280;2801;50.972;7.856;2023-11-18T02:21:16;98404.47;;;1.66
24201;BMP280;2801;50.972;7.856;2023-11-18T02:23:44;98397.66;;;1.70
24201;BMP280;2801;50.972;7.856;2023-11-18T02:26:11;98399.34;;;1.76
24201;BMP280;2801;50.972;7.856;2023-11-18T02:28:38;98385.53;;;1.74
24201;BMP280;2801;50.972;7.856;2023-11-18T02:31:16;98393.06;;;1.82
24201;BMP280;2801;50.972;7.856;2023-11-18T02:34:14;98399.44;;;1.86
24201;BMP280;2801;50.972;7.856;2023-11-18T02:36:49;98397.66;;;1.91
24201;BMP280;2801;50.972;7.856;2023-11-18T02:39:37;98405.13;;;1.94
24201;BMP280;2801;50.972;7.856;2023-11-18T02:42:07;98405.41;;;1.98
24201;BMP280;2801;50.972;7.856;2023-11-18T02:44:36;98395.34;;;1.95
24201;BMP280;2801;50.972;7.856;2023-11-18T02:47:04;98381.81;;;1.91
24201;BMP280;2801;50.972;7.856;2023-11-18T02:49:37;98386.00;;;1.87
24201;BMP280;2801;50.972;7.856;2023-11-18T02:52:04;98382.00;;;1.85
24201;BMP280;2801;50.972;7.856;2023-11-18T02:54:32;98390.41;;;1.82
24201;BMP280;2801;50.972;7.856;2023-11-18T02:56:59;98388.00;;;1.80
24201;BMP280;2801;50.972;7.856;2023-11-18T02:59:26;98382.41;;;1.77
24201;BMP280;2801;50.972;7.856;2023-11-18T03:01:56;98372.81;;;1.71
24201;BMP280;2801;50.972;7.856;2023-11-18T03:04:24;98383.38;;;1.71
24201;BMP280;2801;50.972;7.856;2023-11-18T03:06:51;98378.66;;;1.73
24201;BMP280;2801;50.972;7.856;2023-11-18T03:09:18;98378.34;;;1.69
24201;BMP280;2801;50.972;7.856;2023-11-18T03:11:45;98383.88;;;1.68
24201;BMP280;2801;50.972;7.856;2023-11-18T03:14:12;98384.69;;;1.68
24201;BMP280;2801;50.972;7.856;2023-11-18T03:16:40;98378.84;;;1.66
24201;BMP280;2801;50.972;7.856;2023-11-18T03:19:07;98380.44;;;1.67
24201;BMP280;2801;50.972;7.856;2023-11-18T03:21:35;98381.72;;;1.65
24201;BMP280;2801;50.972;7.856;2023-11-18T03:24:03;98385.72;;;1.67
24201;BMP280;2801;50.972;7.856;2023-11-18T03:26:31;98389.97;;;1.68
24201;BMP280;2801;50.972;7.856;2023-11-18T03:28:59;98383.63;;;1.69
24201;BMP280;2801;50.972;7.856;2023-11-18T03:31:26;98376.25;;;1.71
24201;BMP280;2801;50.972;7.856;2023-11-18T03:33:53;98370.66;;;1.68
24201;BMP280;2801;50.972;7.856;2023-11-18T03:36:20;98365.69;;;1.71
24201;BMP280;2801;50.972;7.856;2023-11-18T03:38:47;98350.13;;;1.75
24201;BMP280;2801;50.972;7.856;2023-11-18T03:41:16;98346.13;;;1.72
24201;BMP280;2801;50.972;7.856;2023-11-18T03:43:43;98346.47;;;1.76
24201;BMP280;2801;50.972;7.856;2023-11-18T03:46:10;98347.81;;;1.78
24201;BMP280;2801;50.972;7.856;2023-11-18T03:48:37;98345.78;;;1.85
24201;BMP280;2801;50.972;7.856;2023-11-18T03:51:05;98344.25;;;1.89
24201;BMP280;2801;50.972;7.856;2023-11-18T03:53:31;98337.66;;;1.92
24201;BMP280;2801;50.972;7.856;2023-11-18T03:56:01;98340.56;;;1.90
24201;BMP280;2801;50.972;7.856;2023-11-18T03:58:29;98334.44;;;1.90
24201;BMP280;2801;50.972;7.856;2023-11-18T04:00:56;98328.13;;;1.91
24201;BMP280;2801;50.972;7.856;2023-11-18T04:03:24;98329.69;;;1.87
24201;BMP280;2801;50.972;7.856;2023-11-18T04:05:51;98330.72;;;1.86
24201;BMP280;2801;50.972;7.856;2023-11-18T04:08:18;98334.16;;;1.86
24201;BMP280;2801;50.972;7.856;2023-11-18T04:10:45;98336.84;;;1.91
24201;BMP280;2801;50.972;7.856;2023-11-18T04:13:12;98337.41;;;1.93
24201;BMP280;2801;50.972;7.856;2023-11-18T04:15:39;98341.38;;;1.91
24201;BMP280;2801;50.972;7.856;2023-11-18T04:18:06;98348.78;;;1.94
24201;BMP280;2801;50.972;7.856;2023-11-18T04:20:33;98352.81;;;1.96
24201;BMP280;2801;50.972;7.856;2023-11-18T04:23:01;98351.50;;;1.99
24201;BMP280;2801;50.972;7.856;2023-11-18T04:25:28;98354.50;;;2.07
24201;BMP280;2801;50.972;7.856;2023-11-18T04:27:55;98363.00;;;2.09
24201;BMP280;2801;50.972;7.856;2023-11-18T04:30:22;98354.81;;;2.11
24201;BMP280;2801;50.972;7.856;2023-11-18T04:32:50;98354.56;;;2.12
24201;BMP280;2801;50.972;7.856;2023-11-18T04:35:19;98373.38;;;2.16
24201;BMP280;2801;50.972;7.856;2023-11-18T04:37:49;98368.09;;;2.16
24201;BMP280;2801;50.972;7.856;2023-11-18T04:40:16;98365.41;;;2.11
24201;BMP280;2801;50.972;7.856;2023-11-18T04:42:44;98356.50;;;2.17
24201;BMP280;2801;50.972;7.856;2023-11-18T04:45:11;98340.34;;;2.18
24201;BMP280;2801;50.972;7.856;2023-11-18T04:47:41;98341.41;;;2.17
24201;BMP280;2801;50.972;7.856;2023-11-18T04:50:12;98335.38;;;2.22
24201;BMP280;2801;50.972;7.856;2023-11-18T04:52:39;98334.06;;;2.24
24201;BMP280;2801;50.972;7.856;2023-11-18T04:55:06;98331.13;;;2.21
24201;BMP280;2801;50.972;7.856;2023-11-18T04:57:34;98328.72;;;2.19
24201;BMP280;2801;50.972;7.856;2023-11-18T05:00:03;98326.88;;;2.20
24201;BMP280;2801;50.972;7.856;2023-11-18T05:02:40;98307.56;;;2.19
24201;BMP280;2801;50.972;7.856;2023-11-18T05:05:08;98311.19;;;2.13
24201;BMP280;2801;50.972;7.856;2023-11-18T05:07:36;98310.66;;;2.11
24201;BMP280;2801;50.972;7.856;2023-11-18T05:10:03;98311.44;;;2.12
24201;BMP280;2801;50.972;7.856;2023-11-18T05:12:32;98309.34;;;2.14
24201;BMP280;2801;50.972;7.856;2023-11-18T05:14:59;98312.03;;;2.19
24201;BMP280;2801;50.972;7.856;2023-11-18T05:17:27;98305.41;;;2.16
24201;BMP280;2801;50.972;7.856;2023-11-18T05:19:54;98300.13;;;2.16
24201;BMP280;2801;50.972;7.856;2023-11-18T05:22:21;98293.00;;;2.17
24201;BMP280;2801;50.972;7.856;2023-11-18T05:24:48;98273.09;;;2.14
24201;BMP280;2801;50.972;7.856;2023-11-18T05:27:16;98275.81;;;2.19
24201;BMP280;2801;50.972;7.856;2023-11-18T05:29:44;98268.41;;;2.21
24201;BMP280;2801;50.972;7.856;2023-11-18T05:32:21;98272.41;;;2.24
24201;BMP280;2801;50.972;7.856;2023-11-18T05:34:50;98267.34;;;2.22
24201;BMP280;2801;50.972;7.856;2023-11-18T05:37:21;98251.50;;;2.22
24201;BMP280;2801;50.972;7.856;2023-11-18T05:39:48;98271.13;;;2.26
24201;BMP280;2801;50.972;7.856;2023-11-18T05:42:20;98268.22;;;2.28
24201;BMP280;2801;50.972;7.856;2023-11-18T05:44:48;98266.66;;;2.32
24201;BMP280;2801;50.972;7.856;2023-11-18T05:47:15;98256.13;;;2.37
24201;BMP280;2801;50.972;7.856;2023-11-18T05:49:43;98257.47;;;2.39
24201;BMP280;2801;50.972;7.856;2023-11-18T05:52:10;98251.94;;;2.41
24201;BMP280;2801;50.972;7.856;2023-11-18T05:54:38;98249.81;;;2.43
24201;BMP280;2801;50.972;7.856;2023-11-18T05:57:06;98250.09;;;2.41
24201;BMP280;2801;50.972;7.856;2023-11-18T05:59:34;98249.09;;;2.47
24201;BMP280;2801;50.972;7.856;2023-11-18T06:02:01;98269.16;;;2.43
24201;BMP280;2801;50.972;7.856;2023-11-18T06:04:30;98266.03;;;2.46
24201;BMP280;2801;50.972;7.856;2023-11-18T06:06:58;98256.78;;;2.49
24201;BMP280;2801;50.972;7.856;2023-11-18T06:09:25;98262.34;;;2.52
24201;BMP280;2801;50.972;7.856;2023-11-18T06:11:52;98267.72;;;2.57
24201;BMP280;2801;50.972;7.856;2023-11-18T06:14:20;98262.41;;;2.57
24201;BMP280;2801;50.972;7.856;2023-11-18T06:16:48;98258.69;;;2.58
24201;BMP280;2801;50.972;7.856;2023-11-18T06:19:18;98264.03;;;2.63
24201;BMP280;2801;50.972;7.856;2023-11-18T06:21:45;98264.59;;;2.65
24201;BMP280;2801;50.972;7.856;2023-11-18T06:24:12;98263.53;;;2.66
24201;BMP280;2801;50.972;7.856;2023-11-18T06:26:41;98264.88;;;2.69
24201;BMP280;2801;50.972;7.856;2023-11-18T06:29:08;98265.94;;;2.68
24201;BMP280;2801;50.972;7.856;2023-11-18T06:31:35;98267.75;;;2.67
24201;BMP280;2801;50.972;7.856;2023-11-18T06:34:02;98268.31;;;2.69
24201;BMP280;2801;50.972;7.856;2023-11-18T06:36:30;98262.03;;;2.75
24201;BMP280;2801;50.972;7.856;2023-11-18T06:38:58;98267.31;;;2.75
24201;BMP280;2801;50.972;7.856;2023-11-18T06:41:26;98253.03;;;2.76
24201;BMP280;2801;50.972;7.856;2023-11-18T06:44:01;98249.03;;;2.74
24201;BMP280;2801;50.972;7.856;2023-11-18T06:46:36;98241.84;;;2.69
24201;BMP280;2801;50.972;7.856;2023-11-18T06:49:07;98242.94;;;2.73
24201;BMP280;2801;50.972;7.856;2023-11-18T06:51:35;98244.25;;;2.71
24201;BMP280;2801;50.972;7.856;2023-11-18T06:54:05;98238.44;;;2.74
24201;BMP280;2801;50.972;7.856;2023-11-18T06:56:40;98234.50;;;2.76
24201;BMP280;2801;50.972;7.856;2023-11-18T06:59:12;98228.69;;;2.79
24201;BMP280;2801;50.972;7.856;2023-11-18T07:01:41;98234.78;;;2.80
24201;BMP280;2801;50.972;7.856;2023-11-18T07:04:10;98237.16;;;2.81
24201;BMP280;2801;50.972;7.856;2023-11-18T07:06:38;98244.88;;;2.88
24201;BMP280;2801;50.972;7.856;2023-11-18T07:09:09;98239.59;;;2.88
24201;BMP280;2801;50.972;7.856;2023-11-18T07:11:48;98248.63;;;2.92
24201;BMP280;2801;50.972;7.856;2023-11-18T07:14:15;98247.59;;;2.93
24201;BMP280;2801;50.972;7.856;2023-11-18T07:16:43;98254.47;;;2.94
24201;BMP280;2801;50.972;7.856;2023-11-18T07:19:12;98256.06;;;2.95
24201;BMP280;2801;50.972;7.856;2023-11-18T07:21:48;98252.88;;;2.93
24201;BMP280;2801;50.972;7.856;2023-11-18T07:24:16;98251.56;;;2.95
24201;BMP280;2801;50.972;7.856;2023-11-18T07:26:44;98254.75;;;2.97
24201;BMP280;2801;50.972;7.856;2023-11-18T07:29:12;98260.84;;;2.98
24201;BMP280;2801;50.972;7.856;2023-11-18T07:31:40;98265.91;;;2.99
24201;BMP280;2801;50.972;7.856;2023-11-18T07:34:07;98271.22;;;3.04
24201;BMP280;2801;50.972;7.856;2023-11-18T07:36:34;98269.91;;;3.07
24201;BMP280;2801;50.972;7.856;2023-11-18T07:39:01;98267.31;;;3.12
24201;BMP280;2801;50.972;7.856;2023-11-18T07:41:33;98280.06;;;3.15
24201;BMP280;2801;50.972;7.856;2023-11-18T07:44:00;98272.94;;;3.20
24201;BMP280;2801;50.972;7.856;2023-11-18T07:46:28;98254.66;;;3.19
24201;BMP280;2801;50.972;7.856;2023-11-18T07:48:58;98279.34;;;3.29
24201;BMP280;2801;50.972;7.856;2023-11-18T07:51:28;98273.53;;;3.32
24201;BMP280;2801;50.972;7.856;2023-11-18T07:53:59;98267.97;;;3.34
24201;BMP280;2801;50.972;7.856;2023-11-18T07:56:26;98270.63;;;3.34
24201;BMP280;2801;50.972;7.856;2023-11-18T07:58:55;98271.47;;;3.39
24201;BMP280;2801;50.972;7.856;2023-11-18T08:01:22;98273.06;;;3.45
24201;BMP280;2801;50.972;7.856;2023-11-18T08:03:49;98270.44;;;3.50
24201;BMP280;2801;50.972;7.856;2023-11-18T08:06:20;98248.44;;;3.55
24201;BMP280;2801;50.972;7.856;2023-11-18T08:08:47;98237.06;;;3.59
24201;BMP280;2801;50.972;7.856;2023-11-18T08:11:15;98243.44;;;3.63
24201;BMP280;2801;50.972;7.856;2023-11-18T08:13:42;98246.91;;;3.64
24201;BMP280;2801;50.972;7.856;2023-11-18T08:16:10;98248.25;;;3.66
24201;BMP280;2801;50.972;7.856;2023-11-18T08:18:39;98240.56;;;3.70
24201;BMP280;2801;50.972;7.856;2023-11-18T08:21:07;98230.75;;;3.75
24201;BMP280;2801;50.972;7.856;2023-11-18T08:23:34;98245.13;;;3.84
24201;BMP280;2801;50.972;7.856;2023-11-18T08:26:03;98239.31;;;3.92
24201;BMP280;2801;50.972;7.856;2023-11-18T08:28:32;98234.53;;;3.99
24201;BMP280;2801;50.972;7.856;2023-11-18T08:30:59;98244.38;;;4.04
24201;BMP280;2801;50.972;7.856;2023-11-18T08:33:28;98242.53;;;4.10
24201;BMP280;2801;50.972;7.856;2023-11-18T08:35:56;98238.03;;;4.15
24201;BMP280;2801;50.972;7.856;2023-11-18T08:38:23;98243.06;;;4.17
24201;BMP280;2801;50.972;7.856;2023-11-18T08:40:51;98237.25;;;4.20
24201;BMP280;2801;50.972;7.856;2023-11-18T08:43:19;98250.50;;;4.25
24201;BMP280;2801;50.972;7.856;2023-11-18T08:45:48;98236.72;;;4.28
24201;BMP280;2801;50.972;7.856;2023-11-18T08:48:17;98235.13;;;4.32
24201;BMP280;2801;50.972;7.856;2023-11-18T08:50:45;98231.16;;;4.34
24201;BMP280;2801;50.972;7.856;2023-11-18T08:53:14;98239.66;;;4.36
24201;BMP280;2801;50.972;7.856;2023-11-18T08:55:45;98231.94;;;4.40
24201;BMP280;2801;50.972;7.856;2023-11-18T08:58:22;98245.25;;;4.50
24201;BMP280;2801;50.972;7.856;2023-11-18T09:00:58;98239.13;;;4.54
24201;BMP280;2801;50.972;7.856;2023-11-18T09:03:42;98236.47;;;4.59
24201;BMP280;2801;50.972;7.856;2023-11-18T09:06:11;98241.28;;;4.62
24201;BMP280;2801;50.972;7.856;2023-11-18T09:08:47;98245.50;;;4.68
24201;BMP280;2801;50.972;7.856;2023-11-18T09:11:22;98238.59;;;4.67
24201;BMP280;2801;50.972;7.856;2023-11-18T09:13:51;98238.59;;;4.72
24201;BMP280;2801;50.972;7.856;2023-11-18T09:16:21;98244.72;;;4.73
24201;BMP280;2801;50.972;7.856;2023-11-18T09:18:51;98247.63;;;4.71
24201;BMP280;2801;50.972;7.856;2023-11-18T09:21:20;98239.66;;;4.71
24201;BMP280;2801;50.972;7.856;2023-11-18T09:23:52;98232.50;;;4.72
24201;BMP280;2801;50.972;7.856;2023-11-18T09:26:19;98232.50;;;4.77
24201;BMP280;2801;50.972;7.856;2023-11-18T09:28:48;98237.28;;;4.80
24201;BMP280;2801;50.972;7.856;2023-11-18T09:31:17;98235.69;;;4.84
24201;BMP280;2801;50.972;7.856;2023-11-18T09:33:44;98231.13;;;4.84
24201;BMP280;2801;50.972;7.856;2023-11-18T09:36:20;98226.63;;;4.85
24201;BMP280;2801;50.972;7.856;2023-11-18T09:38:47;98218.91;;;4.88
24201;BMP280;2801;50.972;7.856;2023-11-18T09:41:15;98216.53;;;4.92
24201;BMP280;2801;50.972;7.856;2023-11-18T09:43:45;98223.69;;;4.91
24201;BMP280;2801;50.972;7.856;2023-11-18T09:46:22;98216.28;;;4.83
24201;BMP280;2801;50.972;7.856;2023-11-18T09:49:08;98209.63;;;4.86
24201;BMP280;2801;50.972;7.856;2023-11-18T09:51:44;98205.09;;;4.91
24201;BMP280;2801;50.972;7.856;2023-11-18T09:54:19;98203.75;;;4.94
24201;BMP280;2801;50.972;7.856;2023-11-18T09:59:49;98202.44;;;5.01
24201;BMP280;2801;50.972;7.856;2023-11-18T10:02:25;98198.97;;;5.01
24201;BMP280;2801;50.972;7.856;2023-11-18T10:04:53;98205.84;;;5.12
24201;BMP280;2801;50.972;7.856;2023-11-18T10:07:30;98203.19;;;5.17
24201;BMP280;2801;50.972;7.856;2023-11-18T10:09:59;98210.63;;;5.25
24201;BMP280;2801;50.972;7.856;2023-11-18T10:12:29;98204.19;;;5.31
24201;BMP280;2801;50.972;7.856;2023-11-18T10:14:57;98193.03;;;5.34
24201;BMP280;2801;50.972;7.856;2023-11-18T10:17:26;98185.06;;;5.34
24201;BMP280;2801;50.972;7.856;2023-11-18T10:19:57;98183.97;;;5.40
24201;BMP280;2801;50.972;7.856;2023-11-18T10:22:28;98187.94;;;5.47
24201;BMP280;2801;50.972;7.856;2023-11-18T10:24:57;98188.16;;;5.56
24201;BMP280;2801;50.972;7.856;2023-11-18T10:27:27;98195.88;;;5.57
24201;BMP280;2801;50.972;7.856;2023-11-18T10:30:05;98197.72;;;5.57
24201;BMP280;2801;50.972;7.856;2023-11-18T10:32:40;98194.50;;;5.65
24201;BMP280;2801;50.972;7.856;2023-11-18T10:35:08;98190.78;;;5.66
24201;BMP280;2801;50.972;7.856;2023-11-18T10:37:37;98182.50;;;5.72
24201;BMP280;2801;50.972;7.856;2023-11-18T10:40:11;98181.94;;;5.75
24201;BMP280;2801;50.972;7.856;2023-11-18T10:42:41;98173.94;;;5.80
24201;BMP280;2801;50.972;7.856;2023-11-18T10:45:11;98183.53;;;5.86
24201;BMP280;2801;50.972;7.856;2023-11-18T10:47:42;98171.53;;;5.89
24201;BMP280;2801;50.972;7.856;2023-11-18T10:50:09;98160.03;;;5.98
24201;BMP280;2801;50.972;7.856;2023-11-18T10:52:37;98156.00;;;6.01
24201;BMP280;2801;50.972;7.856;2023-11-18T10:55:09;98152.53;;;6.05
24201;BMP280;2801;50.972;7.856;2023-11-18T10:57:40;98145.84;;;6.08
24201;BMP280;2801;50.972;7.856;2023-11-18T11:00:10;98133.31;;;6.08
24201;BMP280;2801;50.972;7.856;2023-11-18T11:02:42;98120.00;;;6.08
24201;BMP280;2801;50.972;7.856;2023-11-18T11:05:10;98113.34;;;6.11
24201;BMP280;2801;50.972;7.856;2023-11-18T11:07:49;98110.16;;;6.09
24201;BMP280;2801;50.972;7.856;2023-11-18T11:10:16;98102.94;;;6.14
24201;BMP280;2801;50.972;7.856;2023-11-18T11:12:50;98090.13;;;6.16
24201;BMP280;2801;50.972;7.856;2023-11-18T11:15:26;98095.44;;;6.21
24201;BMP280;2801;50.972;7.856;2023-11-18T11:18:07;98082.88;;;6.22
24201;BMP280;2801;50.972;7.856;2023-11-18T11:20:55;98073.50;;;6.29
24201;BMP280;2801;50.972;7.856;2023-11-18T11:24:04;98078.28;;;6.32
24201;BMP280;2801;50.972;7.856;2023-11-18T11:27:17;98071.31;;;6.36
24201;BMP280;2801;50.972;7.856;2023-11-18T11:29:59;98049.50;;;6.34
24201;BMP280;2801;50.972;7.856;2023-11-18T11:32:35;98032.13;;;6.42
24201;BMP280;2801;50.972;7.856;2023-11-18T11:35:19;98034.44;;;6.48
24201;BMP280;2801;50.972;7.856;2023-11-18T11:37:53;98038.41;;;6.51
24201;BMP280;2801;50.972;7.856;2023-11-18T11:40:35;98037.31;;;6.52
24201;BMP280;2801;50.972;7.856;2023-11-18T11:43:29;98051.38;;;6.57
24201;BMP280;2801;50.972;7.856;2023-11-18T11:45:57;98052.13;;;6.63
24201;BMP280;2801;50.972;7.856;2023-11-18T11:48:26;98043.06;;;6.64
24201;BMP280;2801;50.972;7.856;2023-11-18T11:51:27;98033.75;;;6.61
24201;BMP280;2801;50.972;7.856;2023-11-18T11:56:45;98031.34;;;6.65
24201;BMP280;2801;50.972;7.856;2023-11-18T12:02:14;98039.81;;;6.67
24201;BMP280;2801;50.972;7.856;2023-11-18T12:04:45;98030.25;;;6.66
24201;BMP280;2801;50.972;7.856;2023-11-18T12:07:15;98036.09;;;6.68
24201;BMP280;2801;50.972;7.856;2023-11-18T12:09:47;98038.97;;;6.71
24201;BMP280;2801;50.972;7.856;2023-11-18T12:12:21;98028.03;;;6.73
24201;BMP280;2801;50.972;7.856;2023-11-18T12:14:59;98025.03;;;6.79
24201;BMP280;2801;50.972;7.856;2023-11-18T12:20:46;98019.34;;;6.86
24201;BMP280;2801;50.972;7.856;2023-11-18T12:23:22;98019.59;;;6.89
24201;BMP280;2801;50.972;7.856;2023-11-18T12:25:54;98025.13;;;6.93
24201;BMP280;2801;50.972;7.856;2023-11-18T12:28:26;98019.22;;;6.96
24201;BMP280;2801;50.972;7.856;2023-11-18T12:30:54;98020.88;;;6.92
24201;BMP280;2801;50.972;7.856;2023-11-18T12:33:30;98020.25;;;7.00
24201;BMP280;2801;50.972;7.856;2023-11-18T12:42:01;97999.56;;;7.10
24201;BMP280;2801;50.972;7.856;2023-11-18T12:47:36;97971.28;;;7.14
24201;BMP280;2801;50.972;7.856;2023-11-18T12:50:09;97969.22;;;7.06
24201;BMP280;2801;50.972;7.856;2023-11-18T12:52:45;97974.56;;;7.06
24201;BMP280;2801;50.972;7.856;2023-11-18T12:55:13;97967.66;;;7.05
24201;BMP280;2801;50.972;7.856;2023-11-18T12:57:47;97963.13;;;7.06
24201;BMP280;2801;50.972;7.856;2023-11-18T13:00:18;97955.13;;;7.06
24201;BMP280;2801;50.972;7.856;2023-11-18T13:03:05;97952.94;;;7.08
24201;BMP280;2801;50.972;7.856;2023-11-18T13:05:37;97944.94;;;7.08
24201;BMP280;2801;50.972;7.856;2023-11-18T13:08:05;97947.03;;;7.11
24201;BMP280;2801;50.972;7.856;2023-11-18T13:10:34;97933.50;;;7.07
24201;BMP280;2801;50.972;7.856;2023-11-18T13:13:02;97925.94;;;7.14
24201;BMP280;2801;50.972;7.856;2023-11-18T13:15:32;97923.34;;;7.09
24201;BMP280;2801;50.972;7.856;2023-11-18T13:18:04;97924.84;;;7.15
24201;BMP280;2801;50.972;7.856;2023-11-18T13:20:34;97921.66;;;7.13
24201;BMP280;2801;50.972;7.856;2023-11-18T13:23:03;97925.13;;;7.14
24201;BMP280;2801;50.972;7.856;2023-11-18T13:25:36;97910.81;;;7.10
24201;BMP280;2801;50.972;7.856;2023-11-18T13:28:08;97893.00;;;7.05
24201;BMP280;2801;50.972;7.856;2023-11-18T13:30:37;97894.19;;;6.99
24201;BMP280;2801;50.972;7.856;2023-11-18T13:33:06;97882.63;;;7.04
24201;BMP280;2801;50.972;7.856;2023-11-18T13:35:35;97888.19;;;7.07
24201;BMP280;2801;50.972;7.856;2023-11-18T13:38:03;97891.44;;;7.04
24201;BMP280;2801;50.972;7.856;2023-11-18T13:40:45;97891.63;;;7.08
24201;BMP280;2801;50.972;7.856;2023-11-18T13:43:14;97884.22;;;7.05
24201;BMP280;2801;50.972;7.856;2023-11-18T13:45:41;97876.56;;;6.98
24201;BMP280;2801;50.972;7.856;2023-11-18T13:48:11;97864.63;;;6.96
24201;BMP280;2801;50.972;7.856;2023-11-18T13:50:42;97862.47;;;6.98
24201;BMP280;2801;50.972;7.856;2023-11-18T13:53:10;97850.72;;;6.99
24201;BMP280;2801;50.972;7.856;2023-11-18T13:55:38;97855.97;;;7.04
24201;BMP280;2801;50.972;7.856;2023-11-18T13:58:06;97842.44;;;7.00
24201;BMP280;2801;50.972;7.856;2023-11-18T14:00:33;97827.94;;;7.06
24201;BMP280;2801;50.972;7.856;2023-11-18T14:03:00;97829.31;;;7.04
24201;BMP280;2801;50.972;7.856;2023-11-18T14:05:28;97841.25;;;7.06
24201;BMP280;2801;50.972;7.856;2023-11-18T14:07:58;97819.16;;;7.06
24201;BMP280;2801;50.972;7.856;2023-11-18T14:10:37;97814.97;;;7.00
24201;BMP280;2801;50.972;7.856;2023-11-18T14:13:09;97812.53;;;7.03
24201;BMP280;2801;50.972;7.856;2023-11-18T14:15:40;97812.03;;;7.01
24201;BMP280;2801;50.972;7.856;2023-11-18T14:18:09;97822.97;;;7.00
24201;BMP280;2801;50.972;7.856;2023-11-18T14:20:37;97795.31;;;6.96
24201;BMP280;2801;50.972;7.856;2023-11-18T14:23:04;97809.88;;;7.03
24201;BMP280;2801;50.972;7.856;2023-11-18T14:25:32;97797.19;;;6.95
24201;BMP280;2801;50.972;7.856;2023-11-18T14:28:00;97795.13;;;6.92
24201;BMP280;2801;50.972;7.856;2023-11-18T14:30:27;97790.38;;;6.89
24201;BMP280;2801;50.972;7.856;2023-11-18T14:32:54;97780.38;;;6.81
24201;BMP280;2801;50.972;7.856;2023-11-18T14:35:22;97773.09;;;6.87
24201;BMP280;2801;50.972;7.856;2023-11-18T14:37:52;97761.63;;;6.86
24201;BMP280;2801;50.972;7.856;2023-11-18T14:40:22;97749.88;;;6.87
24201;BMP280;2801;50.972;7.856;2023-11-18T14:42:52;97749.03;;;6.92
24201;BMP280;2801;50.972;7.856;2023-11-18T14:45:20;97741.41;;;6.85
24201;BMP280;2801;50.972;7.856;2023-11-18T14:47:48;97735.56;;;6.83
24201;BMP280;2801;50.972;7.856;2023-11-18T14:50:21;97730.63;;;6.77
24201;BMP280;2801;50.972;7.856;2023-11-18T14:52:50;97724.53;;;6.90
24201;BMP280;2801;50.972;7.856;2023-11-18T14:55:30;97729.94;;;6.85
24201;BMP280;2801;50.972;7.856;2023-11-18T14:57:57;97729.75;;;6.81
24201;BMP280;2801;50.972;7.856;2023-11-18T15:00:25;97717.63;;;6.89
24201;BMP280;2801;50.972;7.856;2023-11-18T15:02:55;97709.88;;;6.74
24201;BMP280;2801;50.972;7.856;2023-11-18T15:05:26;97700.72;;;6.80
24201;BMP280;2801;50.972;7.856;2023-11-18T15:07:55;97695.50;;;6.75
24201;BMP280;2801;50.972;7.856;2023-11-18T15:10:28;97686.59;;;6.79